sensor_id;sensor_type;location;lat;lon;timestamp;noise_LAeq;noise_LA_min;noise_LA_max;noise_LA01;noise_LA95
64036;Laerm;50280;49.864;8.638;2022-07-24T00:00:07;33.88;30.04;43.64;;
64036;Laerm;50280;49.864;8.638;2022-07-24T00:02:40;34.04;29.49;44.68;;
64036;Laerm;50280;49.864;8.638;2022-07-24T00:05:13;33.07;29.58;45.23;;
64036;Laerm;50280;49.864;8.638;2022-07-24T00:07:45;34.31;29.86;48.58;;
64036;Laerm;50280;49.864;8.638;2022-07-24T00:10:18;34.62;29.63;43.97;;
64036;Laerm;50280;49.864;8.638;2022-07-24T00:12:50;34.76;30.06;47.92;;
64036;Laerm;50280;49.864;8.638;2022-07-24T00:15:24;33.44;29.91;43.05;;
64036;Laerm;50280;49.864;8.638;2022-07-24T00:17:57;34.44;30.54;44.97;;
64036;Laerm;50280;49.864;8.638;2022-07-24T00:20:29;32.53;29.67;43.12;;
64036;Laerm;50280;49.864;8.638;2022-07-24T00:23:02;33.18;29.84;55.47;;
64036;Laerm;50280;49.864;8.638;2022-07-24T00:25:34;34.10;29.41;51.79;;
64036;Laerm;50280;49.864;8.638;2022-07-24T00:28:07;33.94;30.16;49.88;;
64036;Laerm;50280;49.864;8.638;2022-07-24T00:30:41;34.75;30.71;45.30;;
64036;Laerm;50280;49.864;8.638;2022-07-24T00:33:13;33.35;29.46;43.27;;
64036;Laerm;50280;49.864;8.638;2022-07-24T00:35:46;33.10;29.70;41.40;;
64036;Laerm;50280;49.864;8.638;2022-07-24T00:38:18;34.46;30.11;44.37;;
64036;Laerm;50280;49.864;8.638;2022-07-24T00:40:51;34.61;30.40;44.44;;
64036;Laerm;50280;49.864;8.638;2022-07-24T00:43:23;35.96;31.06;44.41;;
64036;Laerm;50280;49.864;8.638;2022-07-24T00:45:57;33.46;30.45;41.21;;
64036;Laerm;50280;49.864;8.638;2022-07-24T00:48:30;34.33;29.80;51.04;;
64036;Laerm;50280;49.864;8.638;2022-07-24T00:51:03;34.77;29.78;50.42;;
64036;Laerm;50280;49.864;8.638;2022-07-24T00:53:35;32.49;29.68;38.78;;
64036;Laerm;50280;49.864;8.638;2022-07-24T00:56:08;32.54;30.00;38.27;;
64036;Laerm;50280;49.864;8.638;2022-07-24T00:58:40;33.05;29.61;42.17;;
64036;Laerm;50280;49.864;8.638;2022-07-24T01:01:15;32.63;30.00;43.56;;
64036;Laerm;50280;49.864;8.638;2022-07-24T01:03:48;31.90;29.90;38.31;;
64036;Laerm;50280;49.864;8.638;2022-07-24T01:06:22;33.14;30.39;39.53;;
64036;Laerm;50280;49.864;8.638;2022-07-24T01:08:55;33.01;30.47;39.78;;
64036;Laerm;50280;49.864;8.638;2022-07-24T01:11:28;34.42;30.62;46.20;;
64036;Laerm;50280;49.864;8.638;2022-07-24T01:14:01;33.18;30.42;40.75;;
64036;Laerm;50280;49.864;8.638;2022-07-24T01:16:35;33.02;30.03;45.06;;
64036;Laerm;50280;49.864;8.638;2022-07-24T01:19:08;32.86;30.05;41.74;;
64036;Laerm;50280;49.864;8.638;2022-07-24T01:21:47;33.27;30.30;44.89;;
64036;Laerm;50280;49.864;8.638;2022-07-24T01:24:21;34.59;29.92;44.88;;
64036;Laerm;50280;49.864;8.638;2022-07-24T01:26:54;32.20;29.40;44.51;;
64036;Laerm;50280;49.864;8.638;2022-07-24T01:29:27;32.67;29.66;43.21;;
64036;Laerm;50280;49.864;8.638;2022-07-24T01:31:59;32.51;29.65;43.81;;
64036;Laerm;50280;49.864;8.638;2022-07-24T01:34:31;31.69;29.16;36.41;;
64036;Laerm;50280;49.864;8.638;2022-07-24T01:37:05;32.27;29.32;40.35;;
64036;Laerm;50280;49.864;8.638;2022-07-24T01:39:38;33.04;29.45;46.10;;
64036;Laerm;50280;49.864;8.638;2022-07-24T01:42:11;31.95;29.22;43.89;;
64036;Laerm;50280;49.864;8.638;2022-07-24T01:44:43;32.22;29.32;49.38;;
64036;Laerm;50280;49.864;8.638;2022-07-24T01:47:16;32.25;28.90;41.32;;
64036;Laerm;50280;49.864;8.638;2022-07-24T01:49:48;32.74;29.15;44.13;;
64036;Laerm;50280;49.864;8.638;2022-07-24T01:52:22;32.82;29.35;54.23;;
64036;Laerm;50280;49.864;8.638;2022-07-24T01:54:55;31.89;28.95;37.82;;
64036;Laerm;50280;49.864;8.638;2022-07-24T01:57:27;31.29;28.92;38.60;;
64036;Laerm;50280;49.864;8.638;2022-07-24T02:00:00;31.90;28.77;41.45;;
64036;Laerm;50280;49.864;8.638;2022-07-24T02:02:33;32.03;28.60;43.70;;
64036;Laerm;50280;49.864;8.638;2022-07-24T02:05:06;32.94;28.74;43.63;;
64036;Laerm;50280;49.864;8.638;2022-07-24T02:07:43;33.73;29.39;45.04;;
64036;Laerm;50280;49.864;8.638;2022-07-24T02:10:16;35.15;30.24;42.38;;
64036;Laerm;50280;49.864;8.638;2022-07-24T02:12:48;33.08;29.99;42.13;;
64036;Laerm;50280;49.864;8.638;2022-07-24T02:15:21;32.02;29.49;38.82;;
64036;Laerm;50280;49.864;8.638;2022-07-24T02:17:58;31.68;28.96;37.21;;
64036;Laerm;50280;49.864;8.638;2022-07-24T02:20:32;31.98;29.24;42.97;;
64036;Laerm;50280;49.864;8.638;2022-07-24T02:23:06;32.19;29.23;41.03;;
64036;Laerm;50280;49.864;8.638;2022-07-24T02:25:38;33.25;29.44;46.96;;
64036;Laerm;50280;49.864;8.638;2022-07-24T02:28:11;33.36;30.00;51.48;;
64036;Laerm;50280;49.864;8.638;2022-07-24T02:30:44;33.76;29.69;44.43;;
64036;Laerm;50280;49.864;8.638;2022-07-24T02:33:16;34.17;30.01;46.12;;
64036;Laerm;50280;49.864;8.638;2022-07-24T02:35:49;33.88;29.90;46.29;;
64036;Laerm;50280;49.864;8.638;2022-07-24T02:38:23;33.24;30.14;40.89;;
64036;Laerm;50280;49.864;8.638;2022-07-24T02:40:55;34.86;30.26;47.23;;
64036;Laerm;50280;49.864;8.638;2022-07-24T02:43:28;33.44;30.30;40.90;;
64036;Laerm;50280;49.864;8.638;2022-07-24T02:46:00;33.84;29.94;44.53;;
64036;Laerm;50280;49.864;8.638;2022-07-24T02:48:32;34.16;30.07;44.53;;
64036;Laerm;50280;49.864;8.638;2022-07-24T02:51:05;33.45;30.24;43.21;;
64036;Laerm;50280;49.864;8.638;2022-07-24T02:53:39;33.84;30.95;41.99;;
64036;Laerm;50280;49.864;8.638;2022-07-24T02:56:12;40.95;31.68;62.13;;
64036;Laerm;50280;49.864;8.638;2022-07-24T02:58:44;36.59;31.67;51.01;;
64036;Laerm;50280;49.864;8.638;2022-07-24T03:01:16;40.70;32.01;53.44;;
64036;Laerm;50280;49.864;8.638;2022-07-24T03:03:49;37.94;32.37;45.38;;
64036;Laerm;50280;49.864;8.638;2022-07-24T03:06:21;37.70;31.67;49.62;;
64036;Laerm;50280;49.864;8.638;2022-07-24T03:08:55;39.50;31.59;51.38;;
64036;Laerm;50280;49.864;8.638;2022-07-24T03:11:28;35.66;31.50;43.68;;
64036;Laerm;50280;49.864;8.638;2022-07-24T03:14:00;38.96;31.02;50.13;;
64036;Laerm;50280;49.864;8.638;2022-07-24T03:16:32;37.37;32.20;46.57;;
64036;Laerm;50280;49.864;8.638;2022-07-24T03:19:05;40.75;31.45;63.29;;
64036;Laerm;50280;49.864;8.638;2022-07-24T03:21:37;34.85;30.39;47.76;;
64036;Laerm;50280;49.864;8.638;2022-07-24T03:24:11;37.70;31.78;55.05;;
64036;Laerm;50280;49.864;8.638;2022-07-24T03:26:43;36.09;31.17;53.51;;
64036;Laerm;50280;49.864;8.638;2022-07-24T03:29:16;37.66;31.90;54.28;;
64036;Laerm;50280;49.864;8.638;2022-07-24T03:31:49;34.18;30.97;45.30;;
64036;Laerm;50280;49.864;8.638;2022-07-24T03:34:21;35.91;30.56;44.32;;
64036;Laerm;50280;49.864;8.638;2022-07-24T03:36:53;35.70;30.30;47.97;;
64036;Laerm;50280;49.864;8.638;2022-07-24T03:39:27;40.94;31.62;53.55;;
64036;Laerm;50280;49.864;8.638;2022-07-24T03:42:00;39.20;32.14;54.62;;
64036;Laerm;50280;49.864;8.638;2022-07-24T03:44:32;38.87;32.03;51.03;;
64036;Laerm;50280;49.864;8.638;2022-07-24T03:47:05;36.64;31.72;50.17;;
64036;Laerm;50280;49.864;8.638;2022-07-24T03:49:37;35.84;30.83;51.19;;
64036;Laerm;50280;49.864;8.638;2022-07-24T03:52:10;35.28;30.90;43.56;;
64036;Laerm;50280;49.864;8.638;2022-07-24T03:54:44;35.07;30.81;45.91;;
64036;Laerm;50280;49.864;8.638;2022-07-24T03:57:17;42.90;30.91;59.95;;
64036;Laerm;50280;49.864;8.638;2022-07-24T03:59:50;43.48;30.77;60.90;;
64036;Laerm;50280;49.864;8.638;2022-07-24T04:02:22;40.43;31.10;60.98;;
64036;Laerm;50280;49.864;8.638;2022-07-24T04:04:54;42.21;32.00;58.22;;
64036;Laerm;50280;49.864;8.638;2022-07-24T04:07:27;39.64;31.45;52.61;;
64036;Laerm;50280;49.864;8.638;2022-07-24T04:10:01;37.33;31.52;55.08;;
64036;Laerm;50280;49.864;8.638;2022-07-24T04:12:35;39.86;32.08;53.64;;
64036;Laerm;50280;49.864;8.638;2022-07-24T04:15:08;35.68;30.32;51.56;;
64036;Laerm;50280;49.864;8.638;2022-07-24T04:17:41;35.56;31.31;44.65;;
64036;Laerm;50280;49.864;8.638;2022-07-24T04:20:14;35.89;31.36;49.52;;
64036;Laerm;50280;49.864;8.638;2022-07-24T04:22:46;37.12;31.63;52.34;;
64036;Laerm;50280;49.864;8.638;2022-07-24T04:25:20;35.46;32.29;47.27;;
64036;Laerm;50280;49.864;8.638;2022-07-24T04:27:53;39.21;31.59;65.75;;
64036;Laerm;50280;49.864;8.638;2022-07-24T04:30:25;47.01;31.66;66.91;;
64036;Laerm;50280;49.864;8.638;2022-07-24T04:32:58;41.55;30.89;54.00;;
64036;Laerm;50280;49.864;8.638;2022-07-24T04:35:31;41.12;32.84;55.19;;
64036;Laerm;50280;49.864;8.638;2022-07-24T04:38:03;39.03;32.02;61.38;;
64036;Laerm;50280;49.864;8.638;2022-07-24T04:40:37;37.96;31.35;57.28;;
64036;Laerm;50280;49.864;8.638;2022-07-24T04:43:09;37.14;32.83;46.86;;
64036;Laerm;50280;49.864;8.638;2022-07-24T04:45:42;39.61;32.04;59.07;;
64036;Laerm;50280;49.864;8.638;2022-07-24T04:48:14;39.67;32.44;56.00;;
64036;Laerm;50280;49.864;8.638;2022-07-24T04:50:47;39.09;31.75;57.62;;
64036;Laerm;50280;49.864;8.638;2022-07-24T04:53:19;36.46;31.50;55.33;;
64036;Laerm;50280;49.864;8.638;2022-07-24T04:55:53;38.11;32.34;61.19;;
64036;Laerm;50280;49.864;8.638;2022-07-24T04:58:26;37.76;31.84;56.89;;
64036;Laerm;50280;49.864;8.638;2022-07-24T05:00:59;37.21;32.10;55.12;;
64036;Laerm;50280;49.864;8.638;2022-07-24T05:03:31;40.71;32.97;58.58;;
64036;Laerm;50280;49.864;8.638;2022-07-24T05:06:04;39.51;31.70;59.57;;
64036;Laerm;50280;49.864;8.638;2022-07-24T05:08:37;40.93;31.96;59.96;;
64036;Laerm;50280;49.864;8.638;2022-07-24T05:11:11;40.47;32.23;52.84;;
64036;Laerm;50280;49.864;8.638;2022-07-24T05:13:43;39.86;32.71;56.57;;
64036;Laerm;50280;49.864;8.638;2022-07-24T05:16:15;40.78;32.96;55.79;;
64036;Laerm;50280;49.864;8.638;2022-07-24T05:18:48;37.81;32.11;55.84;;
64036;Laerm;50280;49.864;8.638;2022-07-24T05:21:20;41.64;32.02;57.77;;
64036;Laerm;50280;49.864;8.638;2022-07-24T05:23:53;39.49;31.55;56.12;;
64036;Laerm;50280;49.864;8.638;2022-07-24T05:26:27;35.63;32.34;46.60;;
64036;Laerm;50280;49.864;8.638;2022-07-24T05:29:00;36.18;31.84;51.89;;
64036;Laerm;50280;49.864;8.638;2022-07-24T05:31:33;36.81;31.50;48.82;;
64036;Laerm;50280;49.864;8.638;2022-07-24T05:34:06;43.32;31.92;54.36;;
64036;Laerm;50280;49.864;8.638;2022-07-24T05:36:39;40.02;33.15;55.26;;
64036;Laerm;50280;49.864;8.638;2022-07-24T05:39:11;38.18;32.59;52.99;;
64036;Laerm;50280;49.864;8.638;2022-07-24T05:41:45;37.54;32.04;52.53;;
64036;Laerm;50280;49.864;8.638;2022-07-24T05:44:17;38.39;32.33;50.46;;
64036;Laerm;50280;49.864;8.638;2022-07-24T05:46:50;37.14;32.40;52.19;;
64036;Laerm;50280;49.864;8.638;2022-07-24T05:49:22;38.97;32.26;52.31;;
64036;Laerm;50280;49.864;8.638;2022-07-24T05:51:55;39.20;31.60;51.21;;
64036;Laerm;50280;49.864;8.638;2022-07-24T05:54:27;41.40;33.08;60.07;;
64036;Laerm;50280;49.864;8.638;2022-07-24T05:57:01;41.05;31.54;71.15;;
64036;Laerm;50280;49.864;8.638;2022-07-24T05:59:33;37.67;32.28;52.51;;
64036;Laerm;50280;49.864;8.638;2022-07-24T06:02:06;40.92;33.55;60.39;;
64036;Laerm;50280;49.864;8.638;2022-07-24T06:04:38;40.39;34.82;52.17;;
64036;Laerm;50280;49.864;8.638;2022-07-24T06:07:11;38.54;32.57;47.78;;
64036;Laerm;50280;49.864;8.638;2022-07-24T06:09:44;43.64;33.61;54.87;;
64036;Laerm;50280;49.864;8.638;2022-07-24T06:12:18;44.22;32.18;55.81;;
64036;Laerm;50280;49.864;8.638;2022-07-24T06:14:50;40.48;31.49;52.55;;
64036;Laerm;50280;49.864;8.638;2022-07-24T06:17:22;38.09;32.36;56.24;;
64036;Laerm;50280;49.864;8.638;2022-07-24T06:19:55;42.64;32.35;59.72;;
64036;Laerm;50280;49.864;8.638;2022-07-24T06:22:27;39.78;31.65;64.20;;
64036;Laerm;50280;49.864;8.638;2022-07-24T06:25:00;35.88;30.56;52.23;;
64036;Laerm;50280;49.864;8.638;2022-07-24T06:27:39;40.22;31.39;56.71;;
64036;Laerm;50280;49.864;8.638;2022-07-24T06:30:14;42.17;30.91;60.65;;
64036;Laerm;50280;49.864;8.638;2022-07-24T06:32:49;41.37;31.52;57.81;;
64036;Laerm;50280;49.864;8.638;2022-07-24T06:35:25;39.44;30.91;58.54;;
64036;Laerm;50280;49.864;8.638;2022-07-24T06:38:00;38.72;30.65;63.07;;
64036;Laerm;50280;49.864;8.638;2022-07-24T06:40:32;44.08;31.41;58.60;;
64036;Laerm;50280;49.864;8.638;2022-07-24T06:43:06;43.31;31.35;57.71;;
64036;Laerm;50280;49.864;8.638;2022-07-24T06:45:39;41.15;30.65;65.53;;
64036;Laerm;50280;49.864;8.638;2022-07-24T06:48:11;37.88;31.11;60.59;;
64036;Laerm;50280;49.864;8.638;2022-07-24T06:50:44;41.42;31.75;59.00;;
64036;Laerm;50280;49.864;8.638;2022-07-24T06:53:16;37.90;31.75;51.87;;
64036;Laerm;50280;49.864;8.638;2022-07-24T06:55:49;41.29;31.40;62.93;;
64036;Laerm;50280;49.864;8.638;2022-07-24T06:58:23;43.97;32.66;67.40;;
64036;Laerm;50280;49.864;8.638;2022-07-24T07:00:55;41.69;33.22;59.12;;
64036;Laerm;50280;49.864;8.638;2022-07-24T07:06:00;41.51;33.72;61.35;;
64036;Laerm;50280;49.864;8.638;2022-07-24T07:08:32;40.65;31.75;57.01;;
64036;Laerm;50280;49.864;8.638;2022-07-24T07:11:05;46.22;31.66;73.66;;
64036;Laerm;50280;49.864;8.638;2022-07-24T07:13:38;40.58;32.30;60.52;;
64036;Laerm;50280;49.864;8.638;2022-07-24T07:16:11;40.76;32.43;59.48;;
64036;Laerm;50280;49.864;8.638;2022-07-24T07:18:43;39.43;32.38;55.45;;
64036;Laerm;50280;49.864;8.638;2022-07-24T07:21:16;47.76;32.99;64.18;;
64036;Laerm;50280;49.864;8.638;2022-07-24T07:23:48;47.02;33.45;64.12;;
64036;Laerm;50280;49.864;8.638;2022-07-24T07:26:20;40.76;33.83;57.76;;
64036;Laerm;50280;49.864;8.638;2022-07-24T07:28:54;41.99;34.43;56.32;;
64036;Laerm;50280;49.864;8.638;2022-07-24T07:31:27;44.42;38.99;56.09;;
64036;Laerm;50280;49.864;8.638;2022-07-24T07:34:00;45.10;37.84;58.09;;
64036;Laerm;50280;49.864;8.638;2022-07-24T07:36:32;42.86;33.93;57.32;;
64036;Laerm;50280;49.864;8.638;2022-07-24T07:39:05;40.06;33.49;52.40;;
64036;Laerm;50280;49.864;8.638;2022-07-24T07:41:37;40.86;33.88;49.48;;
64036;Laerm;50280;49.864;8.638;2022-07-24T07:44:11;43.08;33.69;55.85;;
64036;Laerm;50280;49.864;8.638;2022-07-24T07:46:44;47.03;34.39;64.95;;
64036;Laerm;50280;49.864;8.638;2022-07-24T07:49:16;55.04;35.70;66.33;;
64036;Laerm;50280;49.864;8.638;2022-07-24T07:51:48;50.86;35.82;61.87;;
64036;Laerm;50280;49.864;8.638;2022-07-24T07:54:21;44.74;37.42;59.67;;
64036;Laerm;50280;49.864;8.638;2022-07-24T07:56:53;44.72;36.55;61.48;;
64036;Laerm;50280;49.864;8.638;2022-07-24T07:59:30;46.29;36.03;65.55;;
64036;Laerm;50280;49.864;8.638;2022-07-24T08:02:03;44.39;36.50;58.73;;
64036;Laerm;50280;49.864;8.638;2022-07-24T08:04:35;43.57;34.54;54.54;;
64036;Laerm;50280;49.864;8.638;2022-07-24T08:07:08;40.38;33.48;62.30;;
64036;Laerm;50280;49.864;8.638;2022-07-24T08:09:40;44.04;35.00;71.36;;
64036;Laerm;50280;49.864;8.638;2022-07-24T08:12:13;41.81;34.04;58.67;;
64036;Laerm;50280;49.864;8.638;2022-07-24T08:14:47;41.30;34.45;59.98;;
64036;Laerm;50280;49.864;8.638;2022-07-24T08:17:19;42.70;35.45;57.46;;
64036;Laerm;50280;49.864;8.638;2022-07-24T08:19:51;41.16;34.98;58.31;;
64036;Laerm;50280;49.864;8.638;2022-07-24T08:22:24;42.52;35.35;69.05;;
64036;Laerm;50280;49.864;8.638;2022-07-24T08:24:56;44.90;34.82;65.97;;
64036;Laerm;50280;49.864;8.638;2022-07-24T08:27:29;44.06;34.03;64.85;;
64036;Laerm;50280;49.864;8.638;2022-07-24T08:30:04;44.67;34.42;74.05;;
64036;Laerm;50280;49.864;8.638;2022-07-24T08:32:38;46.02;35.74;64.10;;
64036;Laerm;50280;49.864;8.638;2022-07-24T08:35:11;42.39;35.37;60.09;;
64036;Laerm;50280;49.864;8.638;2022-07-24T08:37:44;42.79;36.02;59.49;;
64036;Laerm;50280;49.864;8.638;2022-07-24T08:40:17;43.78;35.20;63.88;;
64036;Laerm;50280;49.864;8.638;2022-07-24T08:42:50;44.89;34.53;63.69;;
64036;Laerm;50280;49.864;8.638;2022-07-24T08:45:24;42.31;34.45;55.80;;
64036;Laerm;50280;49.864;8.638;2022-07-24T08:47:56;44.50;34.51;58.64;;
64036;Laerm;50280;49.864;8.638;2022-07-24T08:50:30;43.42;34.56;63.28;;
64036;Laerm;50280;49.864;8.638;2022-07-24T08:53:04;45.62;33.51;63.90;;
64036;Laerm;50280;49.864;8.638;2022-07-24T08:55:37;42.79;34.13;58.28;;
64036;Laerm;50280;49.864;8.638;2022-07-24T08:58:13;43.73;33.97;58.97;;
64036;Laerm;50280;49.864;8.638;2022-07-24T09:00:47;43.43;34.13;57.28;;
64036;Laerm;50280;49.864;8.638;2022-07-24T09:03:19;43.23;32.91;66.99;;
64036;Laerm;50280;49.864;8.638;2022-07-24T09:05:53;41.33;32.78;63.20;;
64036;Laerm;50280;49.864;8.638;2022-07-24T09:08:26;45.98;32.44;64.53;;
64036;Laerm;50280;49.864;8.638;2022-07-24T09:11:02;39.60;32.09;58.70;;
64036;Laerm;50280;49.864;8.638;2022-07-24T09:13:37;42.40;33.34;57.89;;
64036;Laerm;50280;49.864;8.638;2022-07-24T09:16:18;40.36;32.70;55.77;;
64036;Laerm;50280;49.864;8.638;2022-07-24T09:19:04;42.12;33.77;59.98;;
64036;Laerm;50280;49.864;8.638;2022-07-24T09:21:40;43.34;34.41;60.03;;
64036;Laerm;50280;49.864;8.638;2022-07-24T09:24:17;43.93;34.87;72.30;;
64036;Laerm;50280;49.864;8.638;2022-07-24T09:26:54;44.45;35.83;56.73;;
64036;Laerm;50280;49.864;8.638;2022-07-24T09:29:27;52.67;35.64;66.60;;
64036;Laerm;50280;49.864;8.638;2022-07-24T09:32:02;45.71;33.35;63.87;;
64036;Laerm;50280;49.864;8.638;2022-07-24T09:34:39;39.10;33.09;56.84;;
64036;Laerm;50280;49.864;8.638;2022-07-24T09:37:13;43.87;37.25;59.07;;
64036;Laerm;50280;49.864;8.638;2022-07-24T09:39:46;41.15;33.65;56.96;;
64036;Laerm;50280;49.864;8.638;2022-07-24T09:42:29;39.81;33.41;51.20;;
64036;Laerm;50280;49.864;8.638;2022-07-24T09:45:03;40.36;33.56;56.19;;
64036;Laerm;50280;49.864;8.638;2022-07-24T09:47:39;39.76;32.82;54.76;;
64036;Laerm;50280;49.864;8.638;2022-07-24T09:50:15;40.82;33.72;57.81;;
64036;Laerm;50280;49.864;8.638;2022-07-24T09:52:49;42.94;33.21;57.74;;
64036;Laerm;50280;49.864;8.638;2022-07-24T09:55:24;40.28;32.36;56.01;;
64036;Laerm;50280;49.864;8.638;2022-07-24T09:57:57;44.08;34.37;66.05;;
64036;Laerm;50280;49.864;8.638;2022-07-24T10:00:31;41.45;33.41;61.32;;
64036;Laerm;50280;49.864;8.638;2022-07-24T10:03:13;47.70;35.72;66.38;;
64036;Laerm;50280;49.864;8.638;2022-07-24T10:05:53;48.70;34.33;70.21;;
64036;Laerm;50280;49.864;8.638;2022-07-24T10:08:28;50.42;33.84;69.80;;
64036;Laerm;50280;49.864;8.638;2022-07-24T10:11:02;53.78;33.51;76.94;;
64036;Laerm;50280;49.864;8.638;2022-07-24T10:13:37;51.49;34.61;72.15;;
64036;Laerm;50280;49.864;8.638;2022-07-24T10:16:27;45.91;36.01;69.78;;
64036;Laerm;50280;49.864;8.638;2022-07-24T10:19:04;48.50;36.55;64.36;;
64036;Laerm;50280;49.864;8.638;2022-07-24T10:21:53;40.91;34.33;58.50;;
64036;Laerm;50280;49.864;8.638;2022-07-24T10:24:55;42.53;34.19;62.02;;
64036;Laerm;50280;49.864;8.638;2022-07-24T10:27:30;46.62;34.99;62.40;;
64036;Laerm;50280;49.864;8.638;2022-07-24T10:30:08;46.46;33.56;74.10;;
64036;Laerm;50280;49.864;8.638;2022-07-24T10:32:43;49.84;34.89;66.53;;
64036;Laerm;50280;49.864;8.638;2022-07-24T10:35:23;42.98;35.61;61.54;;
64036;Laerm;50280;49.864;8.638;2022-07-24T10:38:08;42.24;34.69;57.50;;
64036;Laerm;50280;49.864;8.638;2022-07-24T10:40:49;40.16;34.49;56.66;;
64036;Laerm;50280;49.864;8.638;2022-07-24T10:43:23;41.70;35.10;56.80;;
64036;Laerm;50280;49.864;8.638;2022-07-24T10:46:12;41.06;35.35;61.32;;
64036;Laerm;50280;49.864;8.638;2022-07-24T10:48:44;41.01;35.39;55.16;;
64036;Laerm;50280;49.864;8.638;2022-07-24T10:51:18;39.87;34.48;64.21;;
64036;Laerm;50280;49.864;8.638;2022-07-24T10:53:56;40.31;34.04;49.23;;
64036;Laerm;50280;49.864;8.638;2022-07-24T10:56:37;40.88;35.61;53.05;;
64036;Laerm;50280;49.864;8.638;2022-07-24T10:59:12;42.64;35.86;55.60;;
64036;Laerm;50280;49.864;8.638;2022-07-24T11:01:47;43.03;35.77;53.84;;
64036;Laerm;50280;49.864;8.638;2022-07-24T11:04:27;46.32;36.72;65.10;;
64036;Laerm;50280;49.864;8.638;2022-07-24T11:07:10;42.25;33.51;63.43;;
64036;Laerm;50280;49.864;8.638;2022-07-24T11:09:55;42.86;36.87;60.66;;
64036;Laerm;50280;49.864;8.638;2022-07-24T11:12:33;42.79;35.86;64.29;;
64036;Laerm;50280;49.864;8.638;2022-07-24T11:15:13;43.63;35.01;68.09;;
64036;Laerm;50280;49.864;8.638;2022-07-24T11:17:46;48.67;35.15;62.93;;
64036;Laerm;50280;49.864;8.638;2022-07-24T11:20:21;45.89;33.43;68.93;;
64036;Laerm;50280;49.864;8.638;2022-07-24T11:22:55;41.58;33.44;64.49;;
64036;Laerm;50280;49.864;8.638;2022-07-24T11:25:28;56.06;33.65;76.34;;
64036;Laerm;50280;49.864;8.638;2022-07-24T11:28:13;51.36;34.95;71.20;;
64036;Laerm;50280;49.864;8.638;2022-07-24T11:30:46;41.34;33.94;65.33;;
64036;Laerm;50280;49.864;8.638;2022-07-24T11:33:21;45.65;33.54;69.00;;
64036;Laerm;50280;49.864;8.638;2022-07-24T11:35:54;43.76;35.38;58.28;;
64036;Laerm;50280;49.864;8.638;2022-07-24T11:38:29;39.75;34.82;57.02;;
64036;Laerm;50280;49.864;8.638;2022-07-24T11:41:06;41.89;34.14;62.76;;
64036;Laerm;50280;49.864;8.638;2022-07-24T11:43:50;43.95;35.99;65.81;;
64036;Laerm;50280;49.864;8.638;2022-07-24T11:46:33;43.00;34.19;64.97;;
64036;Laerm;50280;49.864;8.638;2022-07-24T11:49:08;40.56;34.01;58.88;;
64036;Laerm;50280;49.864;8.638;2022-07-24T11:51:42;41.59;32.94;60.76;;
64036;Laerm;50280;49.864;8.638;2022-07-24T11:54:23;42.82;35.74;57.34;;
64036;Laerm;50280;49.864;8.638;2022-07-24T11:56:56;43.05;36.43;67.88;;
64036;Laerm;50280;49.864;8.638;2022-07-24T11:59:31;44.63;35.88;69.67;;
64036;Laerm;50280;49.864;8.638;2022-07-24T12:02:09;42.29;34.87;61.01;;
64036;Laerm;50280;49.864;8.638;2022-07-24T12:04:44;41.24;34.36;62.21;;
64036;Laerm;50280;49.864;8.638;2022-07-24T12:07:20;43.07;32.82;67.42;;
64036;Laerm;50280;49.864;8.638;2022-07-24T12:09:58;40.24;33.79;63.88;;
64036;Laerm;50280;49.864;8.638;2022-07-24T12:12:35;43.78;34.51;75.97;;
64036;Laerm;50280;49.864;8.638;2022-07-24T12:15:12;59.63;36.11;79.64;;
64036;Laerm;50280;49.864;8.638;2022-07-24T12:17:56;42.02;36.04;54.20;;
64036;Laerm;50280;49.864;8.638;2022-07-24T12:20:32;39.95;36.15;53.31;;
64036;Laerm;50280;49.864;8.638;2022-07-24T12:23:10;41.87;37.31;52.42;;
64036;Laerm;50280;49.864;8.638;2022-07-24T12:25:45;42.35;36.24;65.22;;
64036;Laerm;50280;49.864;8.638;2022-07-24T12:28:18;39.94;34.82;53.61;;
64036;Laerm;50280;49.864;8.638;2022-07-24T12:30:53;41.22;34.83;52.72;;
64036;Laerm;50280;49.864;8.638;2022-07-24T12:33:27;43.71;36.51;68.55;;
64036;Laerm;50280;49.864;8.638;2022-07-24T12:36:03;42.72;36.50;53.66;;
64036;Laerm;50280;49.864;8.638;2022-07-24T12:38:38;43.59;37.22;52.64;;
64036;Laerm;50280;49.864;8.638;2022-07-24T12:41:16;45.78;39.92;55.89;;
64036;Laerm;50280;49.864;8.638;2022-07-24T12:43:52;45.60;37.53;56.03;;
64036;Laerm;50280;49.864;8.638;2022-07-24T12:46:31;39.09;34.91;53.31;;
64036;Laerm;50280;49.864;8.638;2022-07-24T12:49:07;42.79;33.69;57.24;;
64036;Laerm;50280;49.864;8.638;2022-07-24T12:51:49;40.62;33.55;60.26;;
64036;Laerm;50280;49.864;8.638;2022-07-24T12:54:25;41.76;36.87;58.58;;
64036;Laerm;50280;49.864;8.638;2022-07-24T12:57:07;46.10;36.46;64.20;;
64036;Laerm;50280;49.864;8.638;2022-07-24T12:59:43;42.89;35.59;56.84;;
64036;Laerm;50280;49.864;8.638;2022-07-24T13:02:19;44.22;37.23;60.89;;
64036;Laerm;50280;49.864;8.638;2022-07-24T13:04:55;41.62;37.43;61.14;;
64036;Laerm;50280;49.864;8.638;2022-07-24T13:07:28;42.52;36.89;55.13;;
64036;Laerm;50280;49.864;8.638;2022-07-24T13:10:01;41.22;36.20;53.46;;
64036;Laerm;50280;49.864;8.638;2022-07-24T13:12:35;41.75;35.39;59.24;;
64036;Laerm;50280;49.864;8.638;2022-07-24T13:15:08;45.34;38.39;60.85;;
64036;Laerm;50280;49.864;8.638;2022-07-24T13:17:41;46.80;38.14;65.89;;
64036;Laerm;50280;49.864;8.638;2022-07-24T13:20:13;46.94;38.84;62.80;;
64036;Laerm;50280;49.864;8.638;2022-07-24T13:22:46;45.05;37.24;61.57;;
64036;Laerm;50280;49.864;8.638;2022-07-24T13:25:18;43.33;36.06;66.37;;
64036;Laerm;50280;49.864;8.638;2022-07-24T13:27:52;42.60;34.43;61.71;;
64036;Laerm;50280;49.864;8.638;2022-07-24T13:30:24;40.84;34.08;58.05;;
64036;Laerm;50280;49.864;8.638;2022-07-24T13:32:57;41.66;36.35;54.69;;
64036;Laerm;50280;49.864;8.638;2022-07-24T13:35:29;41.86;36.50;53.40;;
64036;Laerm;50280;49.864;8.638;2022-07-24T13:38:02;40.66;36.63;54.14;;
64036;Laerm;50280;49.864;8.638;2022-07-24T13:40:34;43.99;37.97;60.31;;
64036;Laerm;50280;49.864;8.638;2022-07-24T13:43:08;43.58;38.31;60.25;;
64036;Laerm;50280;49.864;8.638;2022-07-24T13:45:41;42.05;36.37;56.90;;
64036;Laerm;50280;49.864;8.638;2022-07-24T13:48:13;45.35;38.95;62.94;;
64036;Laerm;50280;49.864;8.638;2022-07-24T13:50:46;47.30;39.77;64.32;;
64036;Laerm;50280;49.864;8.638;2022-07-24T13:53:18;42.46;36.88;55.12;;
64036;Laerm;50280;49.864;8.638;2022-07-24T13:55:51;42.91;35.86;61.63;;
64036;Laerm;50280;49.864;8.638;2022-07-24T13:58:24;46.30;37.59;59.48;;
64036;Laerm;50280;49.864;8.638;2022-07-24T14:00:57;48.38;36.56;63.64;;
64036;Laerm;50280;49.864;8.638;2022-07-24T14:03:30;40.38;34.87;58.15;;
64036;Laerm;50280;49.864;8.638;2022-07-24T14:06:03;40.46;35.02;52.46;;
64036;Laerm;50280;49.864;8.638;2022-07-24T14:08:36;39.61;33.84;56.43;;
64036;Laerm;50280;49.864;8.638;2022-07-24T14:11:09;40.52;34.19;57.02;;
64036;Laerm;50280;49.864;8.638;2022-07-24T14:13:43;47.09;34.79;81.56;;
64036;Laerm;50280;49.864;8.638;2022-07-24T14:16:16;44.16;38.90;57.36;;
64036;Laerm;50280;49.864;8.638;2022-07-24T14:18:48;42.10;37.20;54.66;;
64036;Laerm;50280;49.864;8.638;2022-07-24T14:21:21;42.02;36.56;56.34;;
64036;Laerm;50280;49.864;8.638;2022-07-24T14:23:53;42.71;36.74;53.21;;